Time;durP1;ratioP1;P1;durP2;ratioP2;P2;SDS_P1;SDS_P2;PMS_P1;PMS_P2;Temp;Humidity;BMP_temperature;BMP_pressure;BME280_temperature;BME280_humidity;BME280_pressure;Samples;Min_cycle;Max_cycle;Signal;HPM_P1;HPM_P2
2021/05/31 00:01:40;;;;;;;0.40;0.40;;;19.10;60.20;;;;;;5112988;28;20522;-66
2021/05/31 00:04:06;;;;;;;0.40;0.40;;;19.10;60.30;;;;;;5112226;28;20047;-66
2021/05/31 00:06:41;;;;;;;0.30;0.30;;;19.10;60.30;;;;;;5115043;27;20070;-66
2021/05/31 00:09:08;;;;;;;0.38;0.32;;;19.10;60.50;;;;;;5112755;28;20483;-66
2021/05/31 00:11:35;;;;;;;0.50;0.50;;;19.10;60.50;;;;;;5112588;28;20043;-66
2021/05/31 00:14:02;;;;;;;0.55;0.55;;;19.00;60.60;;;;;;5114705;27;20051;-66
2021/05/31 00:16:28;;;;;;;0.40;0.40;;;19.00;60.60;;;;;;5112678;28;20589;-66
2021/05/31 00:18:54;;;;;;;0.38;0.38;;;19.00;60.60;;;;;;5112870;28;20048;-66
2021/05/31 00:21:21;;;;;;;0.52;0.52;;;19.00;60.70;;;;;;5112263;28;20516;-66
2021/05/31 00:23:48;;;;;;;0.70;0.50;;;19.00;60.50;;;;;;5112864;28;20079;-66
2021/05/31 00:26:16;;;;;;;0.50;0.50;;;18.90;60.50;;;;;;5112520;28;20131;-66
2021/05/31 00:28:44;;;;;;;0.50;0.50;;;18.90;60.60;;;;;;5113111;28;20048;-66
2021/05/31 00:31:14;;;;;;;0.60;0.50;;;18.90;60.50;;;;;;5112555;28;20051;-66
2021/05/31 00:33:40;;;;;;;0.85;0.60;;;18.90;60.60;;;;;;5112860;28;20039;-66
2021/05/31 00:36:07;;;;;;;0.50;0.50;;;18.90;60.60;;;;;;5112623;28;20601;-66
2021/05/31 00:38:34;;;;;;;0.45;0.45;;;18.90;60.70;;;;;;5112815;28;20050;-66
2021/05/31 00:41:03;;;;;;;0.30;0.30;;;18.80;60.70;;;;;;5112753;28;20554;-66
2021/05/31 00:43:33;;;;;;;0.28;0.28;;;18.80;60.60;;;;;;5126304;28;20047;-66
2021/05/31 00:46:04;;;;;;;0.63;0.57;;;18.80;60.80;;;;;;5125957;28;20130;-66
2021/05/31 00:48:30;;;;;;;;;;;18.80;60.90;;;;;;5112880;28;20130;-66
2021/05/31 00:50:58;;;;;;;0.68;0.45;;;18.70;60.90;;;;;;5112558;28;19920;-66
2021/05/31 00:53:25;;;;;;;0.63;0.40;;;18.70;60.90;;;;;;5112582;28;20483;-66
2021/05/31 00:55:51;;;;;;;0.40;0.40;;;18.70;61.00;;;;;;5124513;28;20039;-66
2021/05/31 00:58:17;;;;;;;0.35;0.35;;;18.70;61.00;;;;;;5112650;28;20112;-66
2021/05/31 01:00:44;;;;;;;0.63;0.63;;;18.70;61.00;;;;;;5112354;28;20048;-66
2021/05/31 01:03:11;;;;;;;0.50;0.50;;;18.70;61.20;;;;;;5112119;28;20576;-66
2021/05/31 01:05:40;;;;;;;0.55;0.55;;;18.60;61.10;;;;;;5112298;28;20108;-66
2021/05/31 01:08:16;;;;;;;0.40;0.40;;;18.60;61.10;;;;;;5105010;28;20062;-66
2021/05/31 01:11:17;;;;;;;0.40;0.40;;;18.60;61.20;;;;;;5112357;28;20078;-66
2021/05/31 01:13:56;;;;;;;0.43;0.43;;;18.60;61.30;;;;;;5112582;28;20138;-66
2021/05/31 01:16:30;;;;;;;0.38;0.38;;;18.60;61.40;;;;;;5105338;28;20043;-66
2021/05/31 01:19:03;;;;;;;0.40;0.40;;;18.50;61.30;;;;;;5102380;28;20510;-66
2021/05/31 01:21:57;;;;;;;0.50;0.40;;;18.50;61.40;;;;;;5115821;28;20039;-66
2021/05/31 01:24:49;;;;;;;0.73;0.68;;;18.50;61.50;;;;;;5116437;28;20048;-65
2021/05/31 01:27:24;;;;;;;0.60;0.60;;;18.50;61.50;;;;;;5115977;28;20051;-66
2021/05/31 01:30:02;;;;;;;0.60;0.60;;;18.40;61.40;;;;;;5116070;28;20398;-66
2021/05/31 01:32:53;;;;;;;0.73;0.60;;;18.40;61.50;;;;;;5115770;28;20051;-66
2021/05/31 01:35:28;;;;;;;0.50;0.50;;;18.40;61.40;;;;;;5116124;28;20047;-66
2021/05/31 01:37:56;;;;;;;0.45;0.45;;;18.40;61.50;;;;;;5115829;28;20113;-66
2021/05/31 01:40:23;;;;;;;0.50;0.50;;;18.30;61.60;;;;;;5115104;28;20181;-66
2021/05/31 01:42:55;;;;;;;0.55;0.50;;;18.40;61.70;;;;;;5115603;28;20414;-66
2021/05/31 01:45:22;;;;;;;0.50;0.50;;;18.30;61.60;;;;;;5116101;28;20628;-66
2021/05/31 01:47:50;;;;;;;0.52;0.40;;;18.30;61.70;;;;;;5115556;28;20039;-65
2021/05/31 01:50:17;;;;;;;0.50;0.50;;;18.30;61.80;;;;;;5115771;28;20079;-66
2021/05/31 01:52:45;;;;;;;0.47;0.47;;;18.30;61.80;;;;;;5115531;28;20483;-66
2021/05/31 01:55:14;;;;;;;0.43;0.40;;;18.30;61.80;;;;;;5115413;28;20048;-66
2021/05/31 01:57:43;;;;;;;0.40;0.40;;;18.30;61.90;;;;;;5115459;28;20148;-67
2021/05/31 02:00:11;;;;;;;0.47;0.40;;;18.30;61.90;;;;;;5115376;28;20180;-66
2021/05/31 02:02:38;;;;;;;0.50;0.40;;;18.20;61.90;;;;;;5115323;28;20039;-66
2021/05/31 02:05:09;;;;;;;0.40;0.40;;;18.20;61.90;;;;;;5114901;28;20126;-66
2021/05/31 02:07:40;;;;;;;0.85;0.60;;;18.20;62.00;;;;;;5114907;28;20483;-65
2021/05/31 02:10:07;;;;;;;0.50;0.50;;;18.20;62.00;;;;;;5114829;28;20126;-66
2021/05/31 02:12:50;;;;;;;0.55;0.55;;;18.20;62.00;;;;;;5115425;28;20052;-65
2021/05/31 02:15:21;;;;;;;0.50;0.40;;;18.20;62.00;;;;;;5102983;28;20482;-65
2021/05/31 02:17:56;;;;;;;0.45;0.45;;;18.20;62.00;;;;;;5114774;28;20052;-65
2021/05/31 02:20:25;;;;;;;0.75;0.50;;;18.10;62.00;;;;;;5102085;28;20700;-65
2021/05/31 02:22:57;;;;;;;0.45;0.45;;;18.10;62.00;;;;;;5114967;28;20368;-65
2021/05/31 02:25:26;;;;;;;0.65;0.43;;;18.10;62.10;;;;;;5100184;28;20134;-65
2021/05/31 02:27:53;;;;;;;0.60;0.60;;;18.10;62.10;;;;;;5113978;28;20180;-65
2021/05/31 02:30:21;;;;;;;0.50;0.45;;;18.10;62.20;;;;;;5114680;28;20204;-65
2021/05/31 02:32:58;;;;;;;0.40;0.40;;;18.10;62.20;;;;;;5114864;28;20448;-67
2021/05/31 02:35:26;;;;;;;0.50;0.50;;;18.00;62.10;;;;;;5114078;28;20122;-66
2021/05/31 02:37:54;;;;;;;0.30;0.30;;;18.00;62.10;;;;;;5115125;28;20506;-66
2021/05/31 02:40:21;;;;;;;0.60;0.60;;;18.00;62.20;;;;;;5114063;28;20074;-66
2021/05/31 02:42:54;;;;;;;0.60;0.60;;;17.90;62.20;;;;;;5114859;28;20044;-66
2021/05/31 02:45:23;;;;;;;0.50;0.50;;;17.90;62.20;;;;;;5114102;28;20051;-66
2021/05/31 02:47:50;;;;;;;0.60;0.40;;;17.90;62.40;;;;;;5114947;28;20100;-66
2021/05/31 02:50:16;;;;;;;0.55;0.55;;;17.90;62.40;;;;;;5114356;28;20083;-66
2021/05/31 02:52:43;;;;;;;0.40;0.40;;;17.90;62.40;;;;;;5114296;28;20047;-66
2021/05/31 02:55:16;;;;;;;0.30;0.30;;;17.80;62.40;;;;;;5114265;28;20123;-66
2021/05/31 02:57:42;;;;;;;0.40;0.40;;;17.80;62.50;;;;;;5100751;28;20533;-65
2021/05/31 03:00:11;;;;;;;0.35;0.35;;;17.80;62.40;;;;;;5113285;28;20040;-66
2021/05/31 03:02:38;;;;;;;0.63;0.50;;;17.80;62.40;;;;;;5114500;28;20039;-66
2021/05/31 03:05:06;;;;;;;0.43;0.43;;;17.70;62.40;;;;;;5114372;28;20051;-66
2021/05/31 03:07:33;;;;;;;0.68;0.55;;;17.80;62.50;;;;;;5111835;28;20051;-66
2021/05/31 03:09:59;;;;;;;0.30;0.30;;;17.70;62.40;;;;;;5112226;28;20085;-67
2021/05/31 03:12:26;;;;;;;0.47;0.47;;;17.70;62.50;;;;;;5113731;28;20051;-66
2021/05/31 03:14:52;;;;;;;0.50;0.50;;;17.70;62.50;;;;;;5113056;28;20172;-66
2021/05/31 03:17:19;;;;;;;0.50;0.50;;;17.70;62.50;;;;;;5113600;28;20048;-66
2021/05/31 03:19:47;;;;;;;0.40;0.40;;;17.70;62.60;;;;;;5113784;28;20177;-65
2021/05/31 03:22:15;;;;;;;0.32;0.32;;;17.60;62.60;;;;;;5113347;28;20064;-65
2021/05/31 03:24:41;;;;;;;0.50;0.50;;;17.60;62.60;;;;;;5113958;28;20050;-65
2021/05/31 03:27:07;;;;;;;0.50;0.50;;;17.60;62.60;;;;;;5113412;28;20047;-65
2021/05/31 03:29:34;;;;;;;0.40;0.40;;;17.60;62.60;;;;;;5112993;28;20399;-66
2021/05/31 03:32:01;;;;;;;0.57;0.57;;;17.50;62.50;;;;;;5113215;28;20513;-66
2021/05/31 03:34:27;;;;;;;0.30;0.30;;;17.50;62.60;;;;;;5113357;28;20634;-66
2021/05/31 03:36:54;;;;;;;0.40;0.40;;;17.50;62.60;;;;;;5113402;28;20587;-66
2021/05/31 03:39:20;;;;;;;0.40;0.40;;;17.40;62.60;;;;;;5113073;28;20545;-65
2021/05/31 03:41:46;;;;;;;0.45;0.45;;;17.40;62.60;;;;;;5112965;28;20077;-65
2021/05/31 03:44:13;;;;;;;0.40;0.40;;;17.40;62.60;;;;;;5113014;28;20139;-65
2021/05/31 03:46:39;;;;;;;0.40;0.40;;;17.40;62.60;;;;;;5113368;28;20130;-66
2021/05/31 03:49:05;;;;;;;0.38;0.30;;;17.40;62.60;;;;;;5113708;28;20486;-66
2021/05/31 03:51:31;;;;;;;0.40;0.40;;;17.40;62.70;;;;;;5113181;28;20128;-65
2021/05/31 03:53:58;;;;;;;0.40;0.40;;;17.30;62.70;;;;;;5113186;28;20508;-65
2021/05/31 03:56:24;;;;;;;0.60;0.50;;;17.30;62.80;;;;;;5113308;28;20079;-66
2021/05/31 03:58:52;;;;;;;0.40;0.40;;;17.30;62.80;;;;;;5112076;28;20050;-65
2021/05/31 04:01:18;;;;;;;0.40;0.40;;;17.30;62.70;;;;;;5112658;28;20048;-66
2021/05/31 04:03:45;;;;;;;0.50;0.50;;;17.30;62.70;;;;;;5112890;28;20055;-66
2021/05/31 04:06:28;;;;;;;0.47;0.47;;;17.30;62.70;;;;;;5113129;28;20122;-66
2021/05/31 04:11:41;;;;;;;0.52;0.47;;;17.20;62.60;;;;;;5112875;28;20051;-65
2021/05/31 04:14:13;;;;;;;0.60;0.60;;;17.30;62.70;;;;;;5112805;28;20050;-66
2021/05/31 04:16:41;;;;;;;0.40;0.40;;;17.20;62.60;;;;;;5112802;28;20135;-66
2021/05/31 04:19:11;;;;;;;0.45;0.40;;;17.20;62.60;;;;;;5113170;28;20180;-65
2021/05/31 04:21:39;;;;;;;0.45;0.45;;;17.20;62.60;;;;;;5112644;28;20036;-65
2021/05/31 04:24:06;;;;;;;0.50;0.50;;;17.20;62.60;;;;;;5112851;28;20193;-66
2021/05/31 04:26:33;;;;;;;0.38;0.35;;;17.20;62.60;;;;;;5112953;28;20055;-66
2021/05/31 04:29:03;;;;;;;0.38;0.35;;;17.20;62.60;;;;;;5112614;28;20047;-66
2021/05/31 04:31:30;;;;;;;0.40;0.40;;;17.10;62.60;;;;;;5112403;28;20130;-65
2021/05/31 04:33:57;;;;;;;0.40;0.40;;;17.10;62.60;;;;;;5112599;28;20051;-65
2021/05/31 04:36:23;;;;;;;0.47;0.47;;;17.10;62.70;;;;;;5112495;28;20043;-65
2021/05/31 04:38:49;;;;;;;0.40;0.40;;;17.10;62.70;;;;;;5112526;28;20088;-65
2021/05/31 04:41:16;;;;;;;0.57;0.45;;;17.10;62.80;;;;;;5112724;28;20047;-66
2021/05/31 04:43:42;;;;;;;0.50;0.50;;;17.10;62.80;;;;;;5112516;28;20088;-65
2021/05/31 04:46:09;;;;;;;0.40;0.40;;;17.10;62.80;;;;;;5112372;28;20593;-65
2021/05/31 04:48:35;;;;;;;0.90;0.40;;;17.10;62.80;;;;;;5111996;28;20044;-66
2021/05/31 04:51:02;;;;;;;0.85;0.40;;;17.10;62.80;;;;;;5112907;28;20043;-65
2021/05/31 04:53:30;;;;;;;0.50;0.50;;;17.10;62.70;;;;;;5116249;28;20044;-66
2021/05/31 04:55:58;;;;;;;0.43;0.43;;;17.10;62.70;;;;;;5116441;28;20118;-65
2021/05/31 04:58:25;;;;;;;0.43;0.40;;;17.10;62.70;;;;;;5116521;28;20051;-65
2021/05/31 05:00:52;;;;;;;0.50;0.40;;;17.10;62.70;;;;;;5120925;27;20074;-66
2021/05/31 05:03:19;;;;;;;0.77;0.50;;;17.10;62.70;;;;;;5124204;27;20081;-65
2021/05/31 05:05:47;;;;;;;0.50;0.45;;;17.10;62.70;;;;;;5131329;27;20047;-65
2021/05/31 05:08:13;;;;;;;0.30;0.30;;;17.10;62.70;;;;;;5134599;27;20062;-65
2021/05/31 05:10:40;;;;;;;0.35;0.35;;;17.10;62.70;;;;;;5130023;27;20052;-65
2021/05/31 05:13:06;;;;;;;0.43;0.40;;;17.10;62.80;;;;;;5125655;27;20047;-65
2021/05/31 05:15:33;;;;;;;0.40;0.40;;;17.10;62.70;;;;;;5126742;27;20463;-65
2021/05/31 05:18:01;;;;;;;0.50;0.50;;;17.10;62.80;;;;;;5121375;27;20036;-68
2021/05/31 05:20:30;;;;;;;0.70;0.28;;;17.10;62.80;;;;;;5135622;27;20059;-67
2021/05/31 05:22:57;;;;;;;0.45;0.40;;;17.10;62.90;;;;;;5134101;27;20521;-66
2021/05/31 05:25:24;;;;;;;0.50;0.50;;;17.10;63.00;;;;;;5135484;27;20676;-67
2021/05/31 05:27:52;;;;;;;0.40;0.40;;;17.10;63.10;;;;;;5131131;27;20047;-67
2021/05/31 05:30:22;;;;;;;0.40;0.32;;;17.10;63.10;;;;;;5123122;27;20134;-67
2021/05/31 05:32:52;;;;;;;0.40;0.40;;;17.10;63.10;;;;;;5115233;28;20048;-66
2021/05/31 05:35:28;;;;;;;;;;;17.10;63.20;;;;;;5120219;27;20130;-66
2021/05/31 05:48:21;;;;;;;0.50;0.50;;;17.10;63.20;;;;;;5113412;27;20543;-66
2021/05/31 05:50:48;;;;;;;0.55;0.40;;;17.20;63.20;;;;;;5104818;27;20051;-67
2021/05/31 05:53:14;;;;;;;0.40;0.40;;;17.20;63.10;;;;;;5104322;27;20523;-67
2021/05/31 05:55:40;;;;;;;0.30;0.30;;;17.20;63.10;;;;;;5111597;27;20039;-67
2021/05/31 05:58:07;;;;;;;0.20;0.20;;;17.30;63.10;;;;;;5109613;27;20052;-67
2021/05/31 06:00:34;;;;;;;0.43;0.40;;;17.30;64.10;;;;;;5093879;27;20047;-66
2021/05/31 06:03:00;;;;;;;0.40;0.40;;;17.30;63.10;;;;;;5097540;28;20508;-66
2021/05/31 06:05:27;;;;;;;0.40;0.40;;;17.30;63.00;;;;;;5107646;27;20055;-66
2021/05/31 06:07:53;;;;;;;0.55;0.30;;;17.30;63.00;;;;;;5123806;27;20092;-65
2021/05/31 06:10:19;;;;;;;0.38;0.38;;;17.40;63.00;;;;;;5127163;27;20082;-65
2021/05/31 06:12:46;;;;;;;0.60;0.47;;;17.50;62.90;;;;;;5131957;27;20118;-65
2021/05/31 06:15:13;;;;;;;0.40;0.30;;;17.50;62.80;;;;;;5130630;27;20048;-65
2021/05/31 06:17:40;;;;;;;0.28;0.28;;;17.50;62.70;;;;;;5120335;27;20085;-66
2021/05/31 06:20:08;;;;;;;0.30;0.30;;;17.60;62.60;;;;;;5114348;28;20054;-66
2021/05/31 06:22:40;;;;;;;0.40;0.30;;;17.70;62.60;;;;;;5103642;27;20036;-65
2021/05/31 06:25:08;;;;;;;0.60;0.30;;;17.70;62.50;;;;;;5101543;27;20060;-66
2021/05/31 06:27:35;;;;;;;0.35;0.30;;;17.80;62.00;;;;;;5094108;27;20549;-65
2021/05/31 06:30:03;;;;;;;0.38;0.30;;;17.80;61.90;;;;;;5093872;27;20048;-65
2021/05/31 06:32:30;;;;;;;0.63;0.30;;;17.90;61.70;;;;;;5095799;27;20123;-66
2021/05/31 06:34:56;;;;;;;0.35;0.30;;;17.90;61.50;;;;;;5107003;27;20043;-65
2021/05/31 06:37:23;;;;;;;0.30;0.30;;;18.00;61.40;;;;;;5093407;27;20617;-65
2021/05/31 06:39:50;;;;;;;0.40;0.30;;;18.10;61.00;;;;;;5093489;27;20070;-64
2021/05/31 06:42:17;;;;;;;0.20;0.20;;;18.10;60.80;;;;;;5095835;27;20043;-65
2021/05/31 06:44:43;;;;;;;0.22;0.22;;;18.20;60.80;;;;;;5124477;27;20679;-65
2021/05/31 06:47:09;;;;;;;0.30;0.30;;;18.30;60.60;;;;;;5116944;27;20047;-64
2021/05/31 06:49:36;;;;;;;0.45;0.30;;;18.30;60.60;;;;;;5110536;27;20518;-64
2021/05/31 06:52:05;;;;;;;0.20;0.20;;;18.40;60.20;;;;;;5110104;27;20082;-68
2021/05/31 06:54:32;;;;;;;0.32;0.28;;;18.40;60.00;;;;;;5114063;27;20129;-66
2021/05/31 06:56:58;;;;;;;0.57;0.30;;;18.50;60.00;;;;;;5114418;27;20051;-67
2021/05/31 06:59:25;;;;;;;0.30;0.30;;;18.60;59.80;;;;;;5108979;27;20046;-69
2021/05/31 07:01:51;;;;;;;0.40;0.40;;;18.60;59.40;;;;;;5120262;27;20071;-68
2021/05/31 07:04:20;;;;;;;0.30;0.30;;;18.60;59.00;;;;;;5103114;27;20180;-69
2021/05/31 07:06:47;;;;;;;0.20;0.20;;;18.70;58.90;;;;;;5110393;27;20051;-68
2021/05/31 07:09:14;;;;;;;0.28;0.28;;;18.70;58.90;;;;;;5117271;27;20140;-69
2021/05/31 07:11:44;;;;;;;0.57;0.30;;;18.80;58.90;;;;;;5114848;27;20063;-68
2021/05/31 07:14:17;;;;;;;0.20;0.20;;;18.90;58.80;;;;;;5104244;27;20047;-68
2021/05/31 07:16:44;;;;;;;0.30;0.20;;;18.90;58.80;;;;;;5117815;27;20415;-67
2021/05/31 07:19:11;;;;;;;0.65;0.30;;;19.00;58.70;;;;;;5111251;27;20051;-68
2021/05/31 07:21:40;;;;;;;0.20;0.20;;;19.10;58.80;;;;;;5122152;27;20079;-68
2021/05/31 07:24:10;;;;;;;0.20;0.20;;;19.20;58.70;;;;;;5126732;27;20122;-68
2021/05/31 07:26:37;;;;;;;0.35;0.35;;;19.30;58.50;;;;;;5123842;27;20104;-68
2021/05/31 07:29:04;;;;;;;0.55;0.38;;;19.40;58.00;;;;;;5121908;27;20077;-68
2021/05/31 07:31:31;;;;;;;0.57;0.30;;;19.50;57.20;;;;;;5112067;27;20122;-68
2021/05/31 07:33:58;;;;;;;0.20;0.20;;;19.50;56.70;;;;;;5120000;27;20047;-68
2021/05/31 07:36:25;;;;;;;0.43;0.20;;;19.50;54.80;;;;;;5121995;27;20062;-68
2021/05/31 07:38:52;;;;;;;0.28;0.20;;;19.50;54.00;;;;;;5098279;27;20499;-68
2021/05/31 07:41:19;;;;;;;1.67;0.35;;;19.60;53.20;;;;;;5096545;27;20049;-68
2021/05/31 07:43:46;;;;;;;0.38;0.28;;;19.60;53.10;;;;;;5127230;27;20126;-68
2021/05/31 07:46:13;;;;;;;0.35;0.25;;;19.60;52.80;;;;;;5122563;27;20555;-68
2021/05/31 07:48:41;;;;;;;1.20;0.20;;;19.60;52.50;;;;;;5078965;27;20169;-68
2021/05/31 07:51:19;;;;;;;0.10;0.10;;;19.70;52.90;;;;;;5106893;27;20097;-68
2021/05/31 07:53:49;;;;;;;0.28;0.28;;;19.80;52.60;;;;;;5111718;27;20107;-68
2021/05/31 07:56:15;;;;;;;0.15;0.15;;;19.90;53.00;;;;;;5103249;27;20074;-68
2021/05/31 07:58:43;;;;;;;0.28;0.10;;;20.10;52.90;;;;;;5108010;27;20058;-67
2021/05/31 08:01:11;;;;;;;0.20;0.20;;;20.20;52.10;;;;;;5126476;27;20043;-68
2021/05/31 08:03:41;;;;;;;0.32;0.32;;;20.40;52.20;;;;;;5106309;27;20143;-68
2021/05/31 08:06:09;;;;;;;0.40;0.20;;;20.50;51.60;;;;;;5117373;27;20044;-68
2021/05/31 08:08:36;;;;;;;0.28;0.28;;;20.50;49.90;;;;;;5106244;27;20093;-68
2021/05/31 08:11:03;;;;;;;0.10;0.10;;;20.60;49.70;;;;;;5099450;27;20043;-68
2021/05/31 08:13:30;;;;;;;0.17;0.17;;;20.60;49.10;;;;;;5113010;27;20079;-68
2021/05/31 08:15:56;;;;;;;0.20;0.20;;;20.70;49.30;;;;;;5114481;27;20099;-68
2021/05/31 08:18:22;;;;;;;0.60;0.20;;;20.90;48.90;;;;;;5110158;28;20043;-68
2021/05/31 08:20:49;;;;;;;0.10;0.10;;;21.00;48.10;;;;;;5111073;28;20547;-68
2021/05/31 08:23:15;;;;;;;0.10;0.10;;;21.10;48.00;;;;;;5111416;28;20551;-70
2021/05/31 08:25:45;;;;;;;0.20;0.20;;;21.20;47.80;;;;;;5110966;28;20052;-69
2021/05/31 08:28:12;;;;;;;0.10;0.10;;;21.40;47.30;;;;;;5110335;28;20044;-70
2021/05/31 08:30:43;;;;;;;0.10;0.08;;;21.60;46.50;;;;;;5113067;27;20122;-69
2021/05/31 08:33:10;;;;;;;0.17;0.10;;;21.80;44.80;;;;;;5111607;27;20130;-69
2021/05/31 08:35:41;;;;;;;0.10;0.10;;;21.90;44.70;;;;;;5106338;28;20056;-69
2021/05/31 08:38:08;;;;;;;0.30;0.10;;;22.00;44.00;;;;;;5114489;27;20523;-68
2021/05/31 08:40:35;;;;;;;0.30;0.30;;;22.10;44.60;;;;;;5119236;27;20122;-69
2021/05/31 08:43:02;;;;;;;0.47;0.20;;;22.30;45.20;;;;;;5115996;28;20463;-70
2021/05/31 08:45:30;;;;;;;0.30;0.20;;;22.40;42.20;;;;;;5115162;28;20043;-70
2021/05/31 08:47:58;;;;;;;0.28;0.20;;;22.50;42.20;;;;;;5118974;28;20088;-70
2021/05/31 08:50:27;;;;;;;0.10;0.10;;;22.60;41.40;;;;;;5113360;28;20126;-70
2021/05/31 08:52:54;;;;;;;0.20;0.20;;;22.60;41.40;;;;;;5118652;28;20123;-70
2021/05/31 08:55:23;;;;;;;0.30;0.20;;;22.70;42.80;;;;;;5119912;28;20086;-70
2021/05/31 08:57:50;;;;;;;0.15;0.10;;;22.90;42.50;;;;;;5123857;28;20047;-69
2021/05/31 09:00:21;;;;;;;0.52;0.20;;;23.10;41.90;;;;;;5103574;28;20055;-70
2021/05/31 09:02:47;;;;;;;0.10;0.10;;;23.20;39.80;;;;;;5120540;28;20075;-70
2021/05/31 09:05:14;;;;;;;0.10;0.10;;;23.10;39.10;;;;;;5120911;28;20127;-70
2021/05/31 09:07:47;;;;;;;0.20;0.20;;;23.10;39.00;;;;;;5115519;28;20507;-70
2021/05/31 09:10:13;;;;;;;0.20;0.20;;;23.10;39.50;;;;;;5122139;28;20059;-70
2021/05/31 09:12:40;;;;;;;0.20;0.10;;;23.10;38.80;;;;;;5120200;28;20074;-70
2021/05/31 09:15:10;;;;;;;0.22;0.10;;;23.20;38.70;;;;;;5120420;28;20174;-70
2021/05/31 09:17:40;;;;;;;0.10;0.10;;;23.40;39.00;;;;;;5114398;28;20055;-70
2021/05/31 09:20:08;;;;;;;0.20;0.13;;;23.50;38.30;;;;;;5109670;28;20048;-70
2021/05/31 09:22:49;;;;;;;1.35;0.10;;;23.50;35.30;;;;;;5113015;28;20173;-69
2021/05/31 09:25:25;;;;;;;0.30;0.10;;;23.40;35.60;;;;;;5127896;28;20051;-70
2021/05/31 09:27:52;;;;;;;0.55;0.30;;;23.40;35.90;;;;;;5114926;28;20509;-70
2021/05/31 09:30:30;;;;;;;0.32;0.20;;;23.30;34.20;;;;;;5118426;28;20122;-69
2021/05/31 09:32:56;;;;;;;0.10;0.10;;;23.20;33.60;;;;;;5114560;28;20139;-70
2021/05/31 09:35:23;;;;;;;0.20;0.20;;;23.10;34.10;;;;;;5110041;28;20060;-70
2021/05/31 09:37:51;;;;;;;0.10;0.10;;;23.10;34.80;;;;;;5116482;27;20174;-69
2021/05/31 09:40:20;;;;;;;0.22;0.13;;;23.20;35.80;;;;;;5116483;27;20483;-70
2021/05/31 09:42:52;;;;;;;0.05;0.05;;;23.20;34.70;;;;;;5120018;27;20048;-70
2021/05/31 09:45:19;;;;;;;0.10;0.10;;;23.30;33.80;;;;;;5122610;27;20131;-69
2021/05/31 09:47:46;;;;;;;0.65;0.20;;;23.20;33.40;;;;;;5126037;27;20044;-69
2021/05/31 09:50:28;;;;;;;0.20;0.20;;;23.20;34.40;;;;;;5118646;27;20126;-70
2021/05/31 09:53:04;;;;;;;0.20;0.20;;;23.10;34.30;;;;;;5123886;27;20043;-70
2021/05/31 09:55:35;;;;;;;0.20;0.20;;;23.10;34.80;;;;;;5133639;27;20083;-70
2021/05/31 09:58:06;;;;;;;0.20;0.20;;;23.20;35.20;;;;;;5134738;27;20050;-70
2021/05/31 10:00:32;;;;;;;0.00;0.00;;;23.20;33.10;;;;;;5110355;27;20040;-70
2021/05/31 10:11:01;;;;;;;0.43;0.20;;;23.10;33.60;;;;;;5117569;27;20176;-67
2021/05/31 10:13:29;;;;;;;0.30;0.20;;;23.30;34.70;;;;;;5119263;27;20048;-67
2021/05/31 10:15:57;;;;;;;0.10;0.10;;;23.30;33.70;;;;;;5114580;27;20039;-67
2021/05/31 10:18:25;;;;;;;0.13;0.13;;;23.40;33.40;;;;;;5118963;27;20169;-69
2021/05/31 10:20:52;;;;;;;0.10;0.10;;;23.40;33.20;;;;;;5098680;28;20172;-69
2021/05/31 10:23:18;;;;;;;0.60;0.20;;;23.40;32.90;;;;;;5125247;27;20126;-69
2021/05/31 10:25:55;;;;;;;0.10;0.03;;;23.30;33.10;;;;;;5119937;27;20502;-69
2021/05/31 10:28:25;;;;;;;0.08;0.08;;;23.40;34.00;;;;;;5118493;27;20109;-69
2021/05/31 10:31:00;;;;;;;0.00;0.00;;;23.40;34.70;;;;;;5119824;27;20086;-69
2021/05/31 10:33:28;;;;;;;0.20;0.20;;;23.50;34.10;;;;;;5121433;27;20491;-69
2021/05/31 10:35:58;;;;;;;0.35;0.28;;;23.60;34.20;;;;;;5114980;27;20044;-69
2021/05/31 10:38:30;;;;;;;0.55;0.30;;;23.60;34.80;;;;;;5120403;27;20123;-69
2021/05/31 10:40:57;;;;;;;0.75;0.30;;;23.70;33.80;;;;;;5120904;27;20168;-68
2021/05/31 10:43:25;;;;;;;0.20;0.20;;;23.80;33.90;;;;;;5118936;27;20422;-71
2021/05/31 10:46:03;;;;;;;1.25;0.65;;;23.80;33.40;;;;;;5122521;27;20538;-70
2021/05/31 10:48:31;;;;;;;0.38;0.38;;;23.80;34.20;;;;;;5119223;27;20135;-70
2021/05/31 10:51:00;;;;;;;0.20;0.20;;;23.90;35.00;;;;;;5122120;27;20039;-69
2021/05/31 10:53:37;;;;;;;0.10;0.10;;;23.90;35.70;;;;;;5113248;28;20119;-70
2021/05/31 10:56:16;;;;;;;0.10;0.10;;;24.00;34.00;;;;;;5110979;28;20499;-70
2021/05/31 10:58:49;;;;;;;0.10;0.10;;;23.90;30.80;;;;;;5113464;27;20180;-70
2021/05/31 11:01:18;;;;;;;0.75;0.20;;;23.70;30.20;;;;;;5110385;27;20581;-68
2021/05/31 11:03:56;;;;;;;0.20;0.13;;;23.60;30.50;;;;;;5111128;27;20043;-67
2021/05/31 11:06:24;;;;;;;0.10;0.10;;;23.40;31.20;;;;;;5102283;27;20052;-67
2021/05/31 11:09:04;;;;;;;0.10;0.10;;;23.20;32.50;;;;;;5090660;27;20104;-67
2021/05/31 11:11:36;;;;;;;0.30;0.20;;;23.10;32.10;;;;;;5094498;27;20052;-67
2021/05/31 11:14:03;;;;;;;0.20;0.20;;;23.10;32.60;;;;;;5096615;27;20053;-67
2021/05/31 11:16:34;;;;;;;0.35;0.05;;;23.20;32.70;;;;;;5096359;27;20039;-67
2021/05/31 11:19:03;;;;;;;0.20;0.13;;;23.20;33.40;;;;;;5089619;27;20047;-67
2021/05/31 11:21:40;;;;;;;0.20;0.10;;;23.30;32.60;;;;;;5099517;27;20044;-67
2021/05/31 11:24:09;;;;;;;0.08;0.08;;;23.40;32.60;;;;;;5095717;27;20426;-67
2021/05/31 11:26:38;;;;;;;0.10;0.10;;;23.40;31.50;;;;;;5098438;27;20106;-67
2021/05/31 11:29:07;;;;;;;0.38;0.20;;;23.20;31.50;;;;;;5104236;28;20047;-67
2021/05/31 11:31:35;;;;;;;0.20;0.20;;;23.10;31.90;;;;;;5111673;27;20138;-67
2021/05/31 11:34:03;;;;;;;0.20;0.20;;;23.10;32.60;;;;;;5116204;27;20086;-67
2021/05/31 11:36:38;;;;;;;0.10;0.08;;;23.20;33.70;;;;;;5110151;27;20856;-71
2021/05/31 11:39:09;;;;;;;0.00;0.00;;;23.20;33.60;;;;;;5110379;27;20491;-69
2021/05/31 11:41:40;;;;;;;0.50;0.25;;;23.30;32.90;;;;;;5110704;27;20054;-68
2021/05/31 11:44:07;;;;;;;;;;;23.20;32.90;;;;;;5112950;27;20043;-68
2021/05/31 11:46:48;;;;;;;0.20;0.20;;;23.20;33.70;;;;;;5110505;27;19923;-68
2021/05/31 11:49:15;;;;;;;0.35;0.10;;;23.30;33.80;;;;;;5107268;27;20772;-68
2021/05/31 11:51:42;;;;;;;0.55;0.17;;;23.30;34.20;;;;;;5119945;27;20097;-68
2021/05/31 11:54:12;;;;;;;0.20;0.10;;;23.40;34.40;;;;;;5116667;27;20071;-68
2021/05/31 11:56:38;;;;;;;;;;;23.50;33.50;;;;;;5122249;27;20054;-68
2021/05/31 11:59:07;;;;;;;0.17;0.10;;;23.50;33.30;;;;;;5108193;27;20398;-68
2021/05/31 12:01:34;;;;;;;0.28;0.10;;;23.50;33.70;;;;;;5110078;28;20044;-69
2021/05/31 12:04:00;;;;;;;0.25;0.20;;;23.50;33.40;;;;;;5106585;27;20086;-70
2021/05/31 12:06:26;;;;;;;0.20;0.20;;;23.50;33.50;;;;;;5090620;28;20477;-68
2021/05/31 12:08:53;;;;;;;0.10;0.10;;;23.50;33.00;;;;;;5108251;27;20064;-69
2021/05/31 12:11:21;;;;;;;0.77;0.20;;;23.40;34.30;;;;;;5108451;27;20066;-69
2021/05/31 12:13:48;;;;;;;0.40;0.25;;;23.40;35.00;;;;;;5090059;28;20051;-69
2021/05/31 12:16:16;;;;;;;0.28;0.20;;;23.50;35.40;;;;;;5107485;27;20159;-72
2021/05/31 12:18:43;;;;;;;0.20;0.10;;;23.50;35.50;;;;;;5109702;28;20047;-70
2021/05/31 12:21:10;;;;;;;0.00;0.00;;;23.50;33.90;;;;;;5109786;27;20135;-70
2021/05/31 12:23:36;;;;;;;0.00;0.00;;;23.40;34.20;;;;;;5109649;28;20395;-70
2021/05/31 12:26:06;;;;;;;0.32;0.10;;;23.40;34.50;;;;;;5110760;27;20051;-70
2021/05/31 12:28:34;;;;;;;0.10;0.10;;;23.50;34.20;;;;;;5113782;27;20079;-70
2021/05/31 12:31:02;;;;;;;0.10;0.10;;;23.50;34.60;;;;;;5111006;27;20134;-70
2021/05/31 12:33:28;;;;;;;0.20;0.20;;;23.50;36.20;;;;;;5113251;27;20047;-70
2021/05/31 12:35:55;;;;;;;1.15;0.20;;;23.50;35.50;;;;;;5111367;28;20402;-70
2021/05/31 12:38:22;;;;;;;0.30;0.20;;;23.40;35.60;;;;;;5106718;27;20094;-70
2021/05/31 12:40:54;;;;;;;0.82;0.20;;;23.40;35.30;;;;;;5109051;28;20431;-69
2021/05/31 12:43:34;;;;;;;1.10;0.20;;;23.40;34.40;;;;;;5103894;28;20471;-70
2021/05/31 12:46:01;;;;;;;0.30;0.10;;;23.30;34.80;;;;;;5098082;28;20460;-69
2021/05/31 12:48:27;;;;;;;0.50;0.17;;;23.30;34.50;;;;;;5107399;28;20070;-69
2021/05/31 12:50:57;;;;;;;0.25;0.10;;;23.30;35.20;;;;;;5118644;28;20051;-69
2021/05/31 12:53:27;;;;;;;1.23;0.10;;;23.30;35.40;;;;;;5108790;28;20059;-69
2021/05/31 12:55:59;;;;;;;;;;;23.30;36.00;;;;;;5119960;28;20095;-70
2021/05/31 12:58:29;;;;;;;0.35;0.10;;;23.30;36.30;;;;;;5114205;28;19924;-70
2021/05/31 13:00:55;;;;;;;0.20;0.17;;;23.40;36.80;;;;;;5117046;28;20082;-71
2021/05/31 13:03:22;;;;;;;0.20;0.10;;;23.50;35.90;;;;;;5105024;28;20067;-70
2021/05/31 13:05:51;;;;;;;0.10;0.10;;;23.50;35.50;;;;;;5111523;28;20513;-71
2021/05/31 13:08:19;;;;;;;0.13;0.13;;;23.50;34.10;;;;;;5109075;28;20643;-70
2021/05/31 13:10:48;;;;;;;0.05;0.05;;;23.50;34.20;;;;;;5108266;28;20180;-70
2021/05/31 13:13:21;;;;;;;0.10;0.10;;;23.50;34.50;;;;;;5113891;27;21526;-71
2021/05/31 13:15:51;;;;;;;0.10;0.10;;;23.50;34.90;;;;;;5118860;27;20689;-71
2021/05/31 13:18:23;;;;;;;0.60;0.30;;;23.60;36.10;;;;;;5113539;27;20050;-70